createdAt,value
2023-04-08T00:00:55.004Z,18.41
2023-04-08T00:03:22.984Z,18.10
2023-04-08T00:05:51.096Z,18.87
2023-04-08T00:08:19.097Z,18.61
2023-04-08T00:10:47.090Z,17.97
2023-04-08T00:13:14.945Z,19.16
2023-04-08T00:15:43.069Z,18.82
2023-04-08T00:18:12.485Z,18.67
2023-04-08T00:20:40.508Z,18.63
2023-04-08T00:23:08.420Z,17.76
2023-04-08T00:25:36.272Z,17.71
2023-04-08T00:28:04.201Z,18.37
2023-04-08T00:30:32.079Z,18.03
2023-04-08T00:33:00.044Z,17.68
2023-04-08T00:35:30.417Z,17.80
2023-04-08T00:37:58.396Z,18.17
2023-04-08T00:40:26.320Z,17.37
2023-04-08T00:43:01.996Z,18.39
2023-04-08T00:45:29.878Z,17.65
2023-04-08T00:47:57.995Z,17.57
2023-04-08T00:50:25.906Z,17.49
2023-04-08T00:52:55.022Z,16.60
2023-04-08T00:55:22.913Z,16.60
2023-04-08T00:57:50.765Z,16.03
2023-04-08T01:00:18.577Z,16.57
2023-04-08T01:02:52.612Z,16.29
2023-04-08T01:05:29.907Z,17.56
2023-04-08T01:08:03.043Z,17.39
2023-04-08T01:10:34.599Z,16.88
2023-04-08T01:13:06.256Z,16.47
2023-04-08T01:15:37.005Z,16.10
2023-04-08T01:18:08.315Z,16.63
2023-04-08T01:20:36.525Z,16.68
2023-04-08T01:23:14.253Z,16.54
2023-04-08T01:25:47.394Z,15.31
2023-04-08T01:28:18.884Z,15.91
2023-04-08T01:30:47.959Z,15.57
2023-04-08T01:33:18.805Z,16.70
2023-04-08T01:35:47.401Z,17.04
2023-04-08T01:38:19.172Z,16.02
2023-04-08T01:40:49.782Z,16.47
2023-04-08T01:43:19.154Z,16.79
2023-04-08T01:45:49.053Z,16.45
2023-04-08T01:48:17.437Z,15.10
2023-04-08T01:50:46.528Z,16.86
2023-04-08T01:53:15.026Z,16.92
2023-04-08T01:55:44.306Z,17.02
2023-04-08T01:58:21.276Z,16.83
2023-04-08T02:00:50.553Z,15.50
2023-04-08T02:03:21.307Z,16.37
2023-04-08T02:05:49.364Z,16.46
2023-04-08T02:08:17.158Z,17.31
2023-04-08T02:10:44.927Z,16.84
2023-04-08T02:13:12.755Z,16.79
2023-04-08T02:15:47.387Z,17.12
2023-04-08T02:18:18.071Z,16.77
2023-04-08T02:20:51.490Z,15.28
2023-04-08T02:23:22.662Z,16.70
2023-04-08T02:25:51.531Z,15.97
2023-04-08T02:28:20.751Z,16.21
2023-04-08T02:30:52.286Z,16.57
2023-04-08T02:33:22.482Z,16.66
2023-04-08T02:35:54.570Z,16.76
2023-04-08T02:38:24.237Z,15.73
2023-04-08T02:40:52.457Z,16.36
2023-04-08T02:43:20.208Z,15.67
2023-04-08T02:45:48.136Z,15.23
2023-04-08T02:48:17.801Z,15.81
2023-04-08T02:50:45.592Z,16.26
2023-04-08T02:53:13.470Z,16.54
2023-04-08T02:55:41.669Z,16.59
2023-04-08T02:58:09.476Z,15.76
2023-04-08T03:00:39.687Z,17.05
2023-04-08T03:03:07.717Z,15.32
2023-04-08T03:05:36.965Z,16.45
2023-04-08T03:08:06.732Z,17.26
2023-04-08T03:10:34.642Z,16.91
2023-04-08T03:13:02.391Z,15.68
2023-04-08T03:15:30.297Z,15.21
2023-04-08T03:17:58.181Z,16.12
2023-04-08T03:20:26.344Z,16.14
2023-04-08T03:22:55.448Z,16.26
2023-04-08T03:25:23.207Z,15.10
2023-04-08T03:27:51.042Z,16.24
2023-04-08T03:30:19.073Z,16.58
2023-04-08T03:32:46.935Z,16.40
2023-04-08T03:35:14.716Z,17.98
2023-04-08T03:37:42.502Z,17.21
2023-04-08T03:40:13.233Z,17.03
2023-04-08T03:42:41.236Z,16.54
2023-04-08T03:45:09.763Z,16.66
2023-04-08T03:47:37.604Z,16.21
2023-04-08T03:50:05.952Z,16.38
2023-04-08T03:52:33.646Z,16.34
2023-04-08T03:55:01.414Z,16.55
2023-04-08T03:57:30.629Z,17.00
2023-04-08T03:59:58.492Z,16.01
2023-04-08T04:02:26.342Z,16.47
2023-04-08T04:04:54.345Z,15.63
2023-04-08T04:07:22.289Z,16.18
2023-04-08T04:09:54.068Z,16.68
2023-04-08T04:12:21.832Z,17.21
2023-04-08T04:14:51.287Z,17.24
2023-04-08T04:17:19.129Z,16.67
2023-04-08T04:19:47.055Z,17.21
2023-04-08T04:22:15.003Z,17.02
2023-04-08T04:24:48.302Z,16.90
2023-04-08T04:27:17.580Z,15.97
2023-04-08T04:29:45.457Z,16.86
2023-04-08T04:32:14.562Z,16.67
2023-04-08T04:34:42.441Z,16.90
2023-04-08T04:37:10.947Z,17.24
2023-04-08T04:39:38.706Z,16.31
2023-04-08T04:42:06.688Z,17.29
2023-04-08T04:44:34.512Z,17.48
2023-04-08T04:47:02.509Z,16.36
2023-04-08T04:49:31.642Z,15.64
2023-04-08T04:51:59.401Z,15.64
2023-04-08T04:54:27.222Z,16.26
2023-04-08T04:56:55.081Z,16.08
2023-04-08T04:59:22.873Z,16.16
2023-04-08T05:01:50.722Z,16.29
2023-04-08T05:04:18.559Z,16.48
2023-04-08T05:06:47.739Z,15.90
2023-04-08T05:09:15.583Z,16.83
2023-04-08T05:11:43.546Z,16.46
2023-04-08T05:14:11.456Z,16.42
2023-04-08T05:16:39.681Z,16.46
2023-04-08T05:19:07.652Z,16.46
2023-04-08T05:21:35.756Z,17.57
2023-04-08T05:24:05.180Z,17.29
2023-04-08T05:26:33.106Z,16.35
2023-04-08T05:29:00.928Z,16.52
2023-04-08T05:31:29.634Z,15.12
2023-04-08T05:33:57.435Z,15.64
2023-04-08T05:36:26.338Z,17.28
2023-04-08T05:38:54.116Z,18.13
2023-04-08T05:41:23.190Z,16.57
2023-04-08T05:43:50.944Z,15.05
2023-04-08T05:46:18.764Z,15.32
2023-04-08T05:48:46.828Z,15.89
2023-04-08T05:51:15.450Z,16.70
2023-04-08T05:53:43.405Z,16.36
2023-04-08T05:56:11.361Z,16.89
2023-04-08T05:58:41.031Z,17.43
2023-04-08T06:01:08.799Z,17.42
2023-04-08T06:03:36.730Z,16.48
2023-04-08T06:06:04.907Z,16.94
2023-04-08T06:08:32.793Z,18.06
2023-04-08T06:11:00.785Z,16.50
2023-04-08T06:13:56.977Z,16.19
2023-04-08T06:16:24.770Z,16.77
2023-04-08T06:18:52.982Z,15.59
2023-04-08T06:21:21.622Z,17.19
2023-04-08T06:23:49.434Z,17.47
2023-04-08T06:26:18.038Z,16.12
2023-04-08T06:28:47.208Z,16.37
2023-04-08T06:31:14.926Z,17.01
2023-04-08T06:33:42.634Z,16.78
2023-04-08T06:36:11.200Z,16.90
2023-04-08T06:38:39.167Z,16.94
2023-04-08T06:41:07.607Z,17.72
2023-04-08T06:43:37.921Z,17.45
2023-04-08T06:46:07.644Z,18.01
2023-04-08T06:48:37.510Z,17.98
2023-04-08T06:51:05.833Z,17.51
2023-04-08T06:53:33.724Z,17.18
2023-04-08T06:56:01.909Z,16.71
2023-04-08T06:58:29.795Z,16.31
2023-04-08T07:00:57.764Z,15.35
2023-04-08T07:03:26.965Z,16.75
2023-04-08T07:05:55.160Z,15.72
2023-04-08T07:08:22.926Z,16.08
2023-04-08T07:10:50.673Z,16.73
2023-04-08T07:13:18.382Z,15.68
2023-04-08T07:15:46.094Z,16.63
2023-04-08T07:18:14.021Z,17.06
2023-04-08T07:20:43.156Z,18.00
2023-04-08T07:23:10.931Z,18.12
2023-04-08T07:25:38.699Z,17.48
2023-04-08T07:28:07.533Z,18.50
2023-04-08T07:30:35.291Z,18.00
2023-04-08T07:33:03.095Z,16.66
2023-04-08T07:35:31.904Z,16.53
2023-04-08T07:38:01.142Z,16.40
2023-04-08T07:40:29.804Z,17.78
2023-04-08T07:42:57.656Z,17.46
2023-04-08T07:45:25.487Z,18.88
2023-04-08T07:47:53.252Z,18.46
2023-04-08T07:50:21.427Z,19.13
2023-04-08T07:52:49.212Z,17.22
2023-04-08T07:55:18.539Z,18.39
2023-04-08T07:57:46.644Z,19.24
2023-04-08T08:00:20.812Z,19.25
2023-04-08T08:02:49.192Z,18.45
2023-04-08T08:05:17.172Z,19.77
2023-04-08T08:07:45.720Z,18.58
2023-04-08T08:10:13.459Z,19.17
2023-04-08T08:12:42.830Z,16.94
2023-04-08T08:15:11.694Z,18.85
2023-04-08T08:17:39.507Z,18.39
2023-04-08T08:20:08.670Z,18.32
2023-04-08T08:22:41.808Z,19.58
2023-04-08T08:25:19.693Z,19.81
2023-04-08T08:27:49.078Z,19.77
2023-04-08T08:30:18.485Z,18.90
2023-04-08T08:32:47.214Z,18.70
2023-04-08T08:35:15.242Z,19.68
2023-04-08T08:37:43.215Z,19.49
2023-04-08T08:40:12.115Z,19.37
2023-04-08T08:42:40.709Z,19.49
2023-04-08T08:45:11.009Z,19.21
2023-04-08T08:47:38.929Z,19.65
2023-04-08T08:50:07.808Z,19.32
2023-04-08T08:52:35.545Z,18.05
2023-04-08T08:55:13.049Z,18.15
2023-04-08T08:57:51.354Z,18.05
2023-04-08T09:00:20.644Z,18.67
2023-04-08T09:02:48.655Z,19.96
2023-04-08T09:05:16.732Z,20.61
2023-04-08T09:07:44.875Z,19.25
2023-04-08T09:10:12.790Z,19.56
2023-04-08T09:12:55.739Z,18.19
2023-04-08T09:15:24.944Z,18.19
2023-04-08T09:17:52.956Z,18.79
2023-04-08T09:20:20.763Z,19.59
2023-04-08T09:22:59.371Z,19.98
2023-04-08T09:25:28.214Z,20.35
2023-04-08T09:27:56.238Z,19.84
2023-04-08T09:30:27.794Z,18.01
2023-04-08T09:32:57.098Z,17.92
2023-04-08T09:35:26.047Z,19.04
2023-04-08T09:37:53.908Z,19.83
2023-04-08T09:40:21.851Z,19.81
2023-04-08T09:42:52.395Z,20.46
2023-04-08T09:45:20.858Z,20.27
2023-04-08T09:47:58.342Z,20.34
2023-04-08T09:50:32.293Z,20.75
2023-04-08T09:53:03.315Z,20.34
2023-04-08T09:55:35.794Z,21.21
2023-04-08T09:58:07.985Z,20.69
2023-04-08T10:00:41.149Z,21.97
2023-04-08T10:03:15.982Z,21.26
2023-04-08T10:05:44.880Z,20.58
2023-04-08T10:08:12.636Z,19.85
2023-04-08T10:10:41.701Z,19.99
2023-04-08T10:13:09.980Z,19.60
2023-04-08T10:15:40.832Z,19.02
2023-04-08T10:18:34.904Z,19.60
2023-04-08T10:21:03.525Z,20.15
2023-04-08T10:23:59.182Z,20.41
2023-04-08T10:26:38.176Z,20.50
2023-04-08T10:29:42.626Z,20.51
2023-04-08T10:32:13.902Z,22.08
2023-04-08T10:34:53.803Z,21.50
2023-04-08T10:37:21.492Z,21.59
2023-04-08T10:39:55.494Z,20.26
2023-04-08T10:42:28.757Z,19.79
2023-04-08T10:45:01.421Z,20.20
2023-04-08T10:47:29.193Z,19.49
2023-04-08T10:49:58.307Z,19.81
2023-04-08T10:52:27.506Z,19.61
2023-04-08T10:54:55.771Z,19.71
2023-04-08T10:57:26.963Z,20.53
2023-04-08T10:59:54.777Z,20.44
2023-04-08T11:02:22.631Z,20.57
2023-04-08T11:04:50.842Z,20.09
2023-04-08T11:07:22.687Z,19.27
2023-04-08T11:09:50.611Z,18.97
2023-04-08T11:12:19.134Z,20.02
2023-04-08T11:14:48.499Z,19.72
2023-04-08T11:17:17.807Z,20.36
2023-04-08T11:19:45.823Z,21.69
2023-04-08T11:22:14.474Z,23.02
2023-04-08T11:24:44.168Z,22.12
2023-04-08T11:27:12.123Z,21.24
2023-04-08T11:29:40.018Z,21.91
2023-04-08T11:32:08.920Z,20.72
2023-04-08T11:34:40.340Z,20.29
2023-04-08T11:37:08.074Z,21.13
2023-04-08T11:39:36.383Z,21.03
2023-04-08T11:42:05.517Z,21.10
2023-04-08T11:44:33.490Z,20.56
2023-04-08T11:47:10.344Z,21.02
2023-04-08T11:49:52.852Z,21.25
2023-04-08T11:52:38.896Z,20.81
2023-04-08T11:55:07.606Z,20.38
2023-04-08T11:57:37.652Z,19.73
2023-04-08T12:00:06.910Z,20.63
2023-04-08T12:02:38.598Z,20.19
2023-04-08T12:05:07.691Z,19.62
2023-04-08T12:07:35.597Z,19.99
2023-04-08T12:10:03.344Z,20.59
2023-04-08T12:12:31.120Z,21.35
2023-04-08T12:15:00.266Z,21.39
2023-04-08T12:17:28.145Z,20.82
2023-04-08T12:19:56.256Z,20.44
2023-04-08T12:22:26.429Z,20.54
2023-04-08T12:24:54.188Z,21.38
2023-04-08T12:27:21.911Z,21.20
2023-04-08T12:29:53.318Z,21.49
2023-04-08T12:32:22.980Z,21.70
2023-04-08T12:34:52.917Z,20.20
2023-04-08T12:37:23.747Z,20.97
2023-04-08T12:39:51.587Z,21.47
2023-04-08T12:42:19.353Z,19.99
2023-04-08T12:44:47.219Z,19.95
2023-04-08T12:47:15.064Z,21.47
2023-04-08T12:49:49.873Z,21.19
2023-04-08T12:52:21.002Z,21.03
2023-04-08T12:54:48.834Z,21.48
2023-04-08T12:57:19.483Z,20.84
2023-04-08T12:59:47.670Z,21.81
2023-04-08T13:02:15.584Z,22.33
2023-04-08T13:04:44.839Z,22.02
2023-04-08T13:07:12.583Z,22.36
2023-04-08T13:09:40.627Z,21.54
2023-04-08T13:12:08.745Z,21.82
2023-04-08T13:14:39.514Z,21.35
2023-04-08T13:17:07.326Z,20.93
2023-04-08T13:19:38.013Z,21.63
2023-04-08T13:22:07.184Z,21.54
2023-04-08T13:24:34.995Z,20.92
2023-04-08T13:27:03.540Z,22.21
2023-04-08T13:29:31.353Z,22.32
2023-04-08T13:31:59.258Z,23.15
2023-04-08T13:34:27.064Z,22.68
2023-04-08T13:36:54.821Z,21.55
2023-04-08T13:39:24.028Z,20.77
2023-04-08T13:41:52.314Z,19.82
2023-04-08T13:44:20.139Z,21.27
2023-04-08T13:46:47.980Z,21.92
2023-04-08T13:49:16.180Z,22.61
2023-04-08T13:51:46.981Z,22.18
2023-04-08T13:54:14.783Z,23.52
2023-04-08T13:56:43.877Z,21.86
2023-04-08T13:59:11.634Z,22.35
2023-04-08T14:01:40.599Z,21.29
2023-04-08T14:04:08.477Z,21.41
2023-04-08T14:06:36.547Z,20.81
2023-04-08T14:09:04.457Z,20.91
2023-04-08T14:11:32.236Z,21.56
2023-04-08T14:14:01.455Z,20.86
2023-04-08T14:16:30.986Z,20.90
2023-04-08T14:18:58.944Z,21.09
2023-04-08T14:21:26.862Z,21.51
2023-04-08T14:23:54.737Z,23.05
2023-04-08T14:26:22.648Z,23.88
2023-04-08T14:28:50.933Z,23.44
2023-04-08T14:31:20.276Z,22.13
2023-04-08T14:33:48.138Z,19.65
2023-04-08T14:36:16.061Z,20.13
2023-04-08T14:38:43.865Z,20.90
2023-04-08T14:41:11.613Z,20.78
2023-04-08T14:43:39.420Z,20.35
2023-04-08T14:46:07.401Z,21.21
2023-04-08T14:48:36.477Z,21.99
2023-04-08T14:51:04.334Z,22.59
2023-04-08T14:53:32.078Z,21.80
2023-04-08T14:55:59.813Z,20.25
2023-04-08T15:00:55.709Z,21.19
2023-04-08T15:03:23.794Z,20.85
2023-04-08T15:06:01.235Z,21.11
2023-04-08T15:08:29.168Z,20.91
2023-04-08T15:10:56.971Z,20.86
2023-04-08T15:13:24.829Z,19.90
2023-04-08T15:15:52.804Z,20.49
2023-04-08T15:18:20.864Z,21.27
2023-04-08T15:20:48.615Z,21.36
2023-04-08T15:23:18.016Z,20.61
2023-04-08T15:25:46.289Z,20.91
2023-04-08T15:28:14.146Z,20.09
2023-04-08T15:30:42.126Z,19.69
2023-04-08T15:33:10.089Z,21.92
2023-04-08T15:35:38.931Z,21.74
2023-04-08T15:38:07.748Z,20.75
2023-04-08T15:40:38.934Z,21.40
2023-04-08T15:43:06.705Z,21.51
2023-04-08T15:45:34.500Z,21.40
2023-04-08T15:48:02.355Z,21.03
2023-04-08T15:50:31.348Z,20.89
2023-04-08T15:52:59.294Z,21.26
2023-04-08T15:55:27.094Z,21.97
2023-04-08T15:57:57.133Z,21.81
2023-04-08T16:00:25.057Z,20.50
2023-04-08T16:02:53.135Z,19.63
2023-04-08T16:05:21.463Z,19.47
2023-04-08T16:07:49.506Z,21.36
2023-04-08T16:10:17.505Z,21.30
2023-04-08T16:12:46.169Z,21.16
2023-04-08T16:15:15.370Z,20.86
2023-04-08T16:17:43.194Z,20.79
2023-04-08T16:20:12.260Z,21.32
2023-04-08T16:22:40.028Z,21.38
2023-04-08T16:25:08.697Z,21.24
2023-04-08T16:27:36.990Z,21.35
2023-04-08T16:30:05.467Z,20.75
2023-04-08T16:32:34.623Z,19.75
2023-04-08T16:35:02.467Z,20.17
2023-04-08T16:37:30.460Z,20.11
2023-04-08T16:39:58.453Z,20.72
2023-04-08T16:42:26.570Z,20.92
2023-04-08T16:44:57.112Z,21.15
2023-04-08T16:47:25.115Z,21.15
2023-04-08T16:49:54.613Z,20.57
2023-04-08T16:52:23.261Z,21.25
2023-04-08T16:54:52.255Z,21.87
2023-04-08T16:57:20.006Z,20.92
2023-04-08T16:59:48.065Z,19.52
2023-04-08T17:02:16.097Z,19.21
2023-04-08T17:04:44.021Z,19.57
2023-04-08T17:07:14.555Z,19.57
2023-04-08T17:09:42.630Z,20.53
2023-04-08T17:12:10.435Z,20.01
2023-04-08T17:14:38.266Z,19.62
2023-04-08T17:17:06.121Z,20.35
2023-04-08T17:19:33.910Z,19.67
2023-04-08T17:22:03.680Z,20.26
2023-04-08T17:24:33.015Z,20.94
2023-04-08T17:27:01.078Z,19.86
2023-04-08T17:29:28.867Z,20.16
2023-04-08T17:31:56.692Z,20.85
2023-04-08T17:34:24.858Z,20.72
2023-04-08T17:36:52.788Z,20.76
2023-04-08T17:39:20.608Z,20.30
2023-04-08T17:41:49.694Z,19.98
2023-04-08T17:44:17.613Z,21.51
2023-04-08T17:46:45.536Z,20.47
2023-04-08T17:49:14.198Z,20.15
2023-04-08T17:51:42.188Z,21.24
2023-04-08T17:54:10.079Z,20.00
2023-04-08T17:56:37.843Z,20.41
2023-04-08T17:59:07.277Z,20.52
2023-04-08T18:01:37.167Z,20.33
2023-04-08T18:04:06.725Z,19.78
2023-04-08T18:06:34.653Z,20.15
2023-04-08T18:09:06.215Z,20.89
2023-04-08T18:11:34.007Z,20.76
2023-04-08T18:14:01.838Z,20.28
2023-04-08T18:16:31.192Z,19.74
2023-04-08T18:18:59.232Z,19.32
2023-04-08T18:21:27.217Z,19.24
2023-04-08T18:23:56.396Z,19.73
2023-04-08T18:26:26.992Z,19.54
2023-04-08T18:28:55.201Z,19.58
2023-04-08T18:31:26.682Z,19.78
2023-04-08T18:33:55.946Z,19.42
2023-04-08T18:36:23.744Z,19.91
2023-04-08T18:38:51.868Z,19.58
2023-04-08T18:41:23.240Z,20.48
2023-04-08T18:43:51.175Z,19.96
2023-04-08T18:46:20.228Z,20.19
2023-04-08T18:48:49.128Z,19.96
2023-04-08T18:51:27.195Z,20.39
2023-04-08T18:53:55.219Z,20.23
2023-04-08T18:56:23.034Z,20.56
2023-04-08T18:58:54.523Z,20.68
2023-04-08T19:01:24.540Z,21.54
2023-04-08T19:03:52.981Z,21.23
2023-04-08T19:06:26.128Z,20.31
2023-04-08T19:08:53.950Z,21.76
2023-04-08T19:11:31.852Z,21.25
2023-04-08T19:13:59.961Z,20.69
2023-04-08T19:16:27.748Z,19.64
2023-04-08T19:18:57.226Z,20.36
2023-04-08T19:21:30.013Z,20.56
2023-04-08T19:24:00.193Z,20.07
2023-04-08T19:26:28.132Z,21.01
2023-04-08T19:28:58.067Z,20.95
2023-04-08T19:31:26.030Z,20.45
2023-04-08T19:33:54.016Z,20.47
2023-04-08T19:36:21.988Z,20.40
2023-04-08T19:38:51.105Z,20.50
2023-04-08T19:41:19.091Z,20.57
2023-04-08T19:43:47.663Z,20.23
2023-04-08T19:46:15.922Z,20.17
2023-04-08T19:48:44.375Z,20.33
2023-04-08T19:51:17.006Z,20.41
2023-04-08T19:53:44.939Z,20.74
2023-04-08T19:56:14.611Z,20.84
2023-04-08T19:58:42.533Z,20.62
2023-04-08T20:01:10.374Z,19.85
2023-04-08T20:03:38.327Z,19.90
2023-04-08T20:06:06.080Z,19.68
2023-04-08T20:08:34.600Z,19.57
2023-04-08T20:11:04.615Z,20.06
2023-04-08T20:13:34.109Z,19.92
2023-04-08T20:16:02.825Z,19.88
2023-04-08T20:18:30.710Z,19.39
2023-04-08T20:20:59.560Z,19.69
2023-04-08T20:23:28.470Z,19.69
2023-04-08T20:25:56.617Z,19.58
2023-04-08T20:28:25.650Z,19.12
2023-04-08T20:30:54.901Z,18.90
2023-04-08T20:33:22.650Z,19.18
2023-04-08T20:35:53.127Z,19.20
2023-04-08T20:38:21.624Z,19.77
2023-04-08T20:40:50.468Z,19.38
2023-04-08T20:43:18.278Z,20.05
2023-04-08T20:45:46.124Z,19.91
2023-04-08T20:48:16.542Z,19.87
2023-04-08T20:50:44.974Z,20.17
2023-04-08T20:53:12.831Z,19.53
2023-04-08T20:55:40.644Z,19.70
2023-04-08T20:58:08.434Z,20.03
2023-04-08T21:00:36.177Z,20.26
2023-04-08T21:03:04.268Z,20.00
2023-04-08T21:05:37.902Z,20.29
2023-04-08T21:08:07.832Z,20.38
2023-04-08T21:10:35.762Z,20.19
2023-04-08T21:13:03.946Z,20.20
2023-04-08T21:15:33.023Z,20.33
2023-04-08T21:18:01.250Z,20.03
2023-04-08T21:20:29.138Z,20.22
2023-04-08T21:22:59.472Z,19.60
2023-04-08T21:25:31.058Z,19.84
2023-04-08T21:28:05.049Z,18.64
2023-04-08T21:30:33.056Z,18.91
2023-04-08T21:33:01.758Z,18.72
2023-04-08T21:35:31.843Z,18.19
2023-04-08T21:38:03.337Z,18.91
2023-04-08T21:40:31.593Z,18.71
2023-04-08T21:43:00.689Z,18.20
2023-04-08T21:45:28.873Z,18.68
2023-04-08T21:47:58.602Z,18.75
2023-04-08T21:50:26.518Z,18.07
2023-04-08T21:52:54.426Z,17.97
2023-04-08T21:55:23.770Z,18.60
2023-04-08T21:57:51.607Z,18.97
2023-04-08T22:00:19.405Z,18.37
2023-04-08T22:02:47.530Z,18.22
2023-04-08T22:05:15.550Z,18.65
2023-04-08T22:07:43.526Z,18.55
2023-04-08T22:10:12.495Z,18.32
2023-04-08T22:12:41.662Z,18.08
2023-04-08T22:15:11.135Z,17.92
2023-04-08T22:17:39.201Z,17.76
2023-04-08T22:20:07.932Z,17.49
2023-04-08T22:22:35.722Z,18.26
2023-04-08T22:25:03.558Z,17.75
2023-04-08T22:27:31.409Z,18.14
2023-04-08T22:30:01.168Z,17.55
2023-04-08T22:32:29.235Z,18.22
2023-04-08T22:34:57.154Z,17.46
2023-04-08T22:37:25.565Z,17.96
2023-04-08T22:39:53.650Z,18.34
2023-04-08T22:42:21.785Z,18.43
2023-04-08T22:44:49.874Z,18.68
2023-04-08T22:47:19.318Z,18.27
2023-04-08T22:49:47.299Z,17.98
2023-04-08T22:52:15.671Z,18.53
2023-04-08T22:54:44.073Z,18.57
2023-04-08T22:57:12.220Z,18.13
2023-04-08T22:59:40.595Z,17.99
2023-04-08T23:02:08.665Z,17.28
2023-04-08T23:04:38.434Z,17.44
2023-04-08T23:07:06.248Z,17.39
2023-04-08T23:09:34.282Z,17.96
2023-04-08T23:12:02.720Z,18.19
2023-04-08T23:14:30.693Z,18.59
2023-04-08T23:16:58.972Z,18.17
2023-04-08T23:19:27.269Z,17.67
2023-04-08T23:21:57.545Z,17.34
2023-04-08T23:24:25.484Z,17.08
2023-04-08T23:26:53.488Z,17.25
2023-04-08T23:29:21.784Z,18.29
2023-04-08T23:31:49.654Z,17.97
2023-04-08T23:34:17.950Z,17.44
2023-04-08T23:36:46.035Z,17.40
2023-04-08T23:39:15.818Z,17.46
2023-04-08T23:41:43.891Z,15.65
2023-04-08T23:44:14.803Z,15.30
2023-04-08T23:46:42.942Z,15.23
2023-04-08T23:49:11.635Z,15.71
2023-04-08T23:51:40.187Z,15.75
2023-04-08T23:54:08.123Z,16.27
2023-04-08T23:56:37.335Z,16.18
2023-04-08T23:59:05.537Z,16.16
